createdAt,value
2019-03-18T00:00:33.169Z,0.72
2019-03-18T00:03:01.388Z,1.52
2019-03-18T00:05:29.902Z,0.93
2019-03-18T00:08:17.838Z,0.80
2019-03-18T00:10:46.319Z,1.65
2019-03-18T00:13:14.528Z,4.00
2019-03-18T00:15:42.756Z,1.45
2019-03-18T00:18:10.972Z,0.70
2019-03-18T00:20:39.220Z,1.47
2019-03-18T00:23:07.512Z,0.55
2019-03-18T00:25:35.745Z,0.88
2019-03-18T00:28:04.068Z,2.30
2019-03-18T00:30:32.296Z,2.12
2019-03-18T00:33:03.088Z,1.07
2019-03-18T00:35:30.468Z,2.15
2019-03-18T00:37:58.693Z,1.57
2019-03-18T00:40:26.916Z,1.77
2019-03-18T00:42:55.136Z,1.75
2019-03-18T00:45:23.460Z,0.78
2019-03-18T00:47:52.001Z,4.85
2019-03-18T00:50:20.310Z,1.62
2019-03-18T00:52:48.524Z,3.12
2019-03-18T00:55:16.756Z,0.82
2019-03-18T00:57:45.036Z,1.60
2019-03-18T01:00:17.248Z,0.50
2019-03-18T01:02:45.772Z,1.55
2019-03-18T01:05:13.996Z,1.45
2019-03-18T01:07:42.216Z,1.20
2019-03-18T01:10:14.914Z,0.80
2019-03-18T01:12:43.132Z,0.80
2019-03-18T01:15:11.956Z,1.10
2019-03-18T01:17:40.169Z,1.22
2019-03-18T01:20:09.941Z,2.15
2019-03-18T01:22:38.159Z,2.42
2019-03-18T01:25:07.436Z,2.83
2019-03-18T01:27:35.653Z,1.98
2019-03-18T01:30:04.727Z,1.12
2019-03-18T01:32:33.108Z,2.08
2019-03-18T01:35:01.644Z,2.02
2019-03-18T01:37:29.860Z,1.12
2019-03-18T01:39:58.092Z,2.65
2019-03-18T01:42:26.309Z,2.47
2019-03-18T01:44:54.537Z,2.17
2019-03-18T01:47:22.754Z,2.08
2019-03-18T01:49:51.300Z,2.50
2019-03-18T01:52:19.524Z,2.83
2019-03-18T01:54:47.744Z,1.32
2019-03-18T01:57:16.048Z,1.65
2019-03-18T01:59:44.276Z,3.33
2019-03-18T02:02:12.493Z,1.30
2019-03-18T02:04:41.085Z,1.60
2019-03-18T02:07:09.467Z,2.08
2019-03-18T02:09:37.689Z,0.65
2019-03-18T02:12:06.201Z,1.20
2019-03-18T02:14:34.428Z,1.55
2019-03-18T02:17:02.652Z,1.32
2019-03-18T02:19:30.868Z,1.12
2019-03-18T02:21:59.100Z,1.60
2019-03-18T02:24:27.316Z,2.87
2019-03-18T02:26:55.547Z,1.62
2019-03-18T02:29:23.759Z,1.87
2019-03-18T02:31:52.009Z,0.90
2019-03-18T02:34:20.208Z,2.25
2019-03-18T02:36:48.436Z,1.72
2019-03-18T02:39:16.648Z,3.60
2019-03-18T02:41:45.208Z,3.02
2019-03-18T02:44:13.430Z,1.62
2019-03-18T02:46:41.657Z,1.27
2019-03-18T02:49:09.874Z,1.62
2019-03-18T02:51:38.101Z,1.05
2019-03-18T02:54:06.328Z,1.35
2019-03-18T02:56:34.551Z,1.30
2019-03-18T02:59:03.051Z,1.35
2019-03-18T03:01:31.269Z,1.95
2019-03-18T03:03:59.486Z,3.20
2019-03-18T03:06:27.708Z,0.70
2019-03-18T03:08:55.961Z,1.65
2019-03-18T03:11:24.190Z,1.20
2019-03-18T03:13:52.405Z,1.50
2019-03-18T03:16:26.962Z,1.70
2019-03-18T03:18:50.574Z,2.05
2019-03-18T03:21:18.802Z,1.60
2019-03-18T03:23:47.022Z,0.95
2019-03-18T03:26:15.249Z,2.25
2019-03-18T03:28:43.463Z,1.70
2019-03-18T03:31:11.829Z,0.85
2019-03-18T03:33:40.090Z,2.00
2019-03-18T03:36:08.317Z,2.65
2019-03-18T03:38:36.535Z,1.80
2019-03-18T03:41:04.758Z,3.25
2019-03-18T03:43:32.973Z,6.50
2019-03-18T03:46:01.209Z,3.15
2019-03-18T03:48:29.424Z,1.65
2019-03-18T03:50:57.651Z,0.90
2019-03-18T03:53:25.878Z,1.12
2019-03-18T03:55:54.118Z,0.65
2019-03-18T03:58:22.334Z,1.55
2019-03-18T04:00:50.611Z,0.60
2019-03-18T04:03:18.849Z,2.50
2019-03-18T04:05:47.332Z,0.60
2019-03-18T04:08:15.545Z,1.50
2019-03-18T04:10:43.765Z,2.10
2019-03-18T04:13:12.265Z,2.95
2019-03-18T04:15:40.474Z,1.70
2019-03-18T04:18:08.705Z,1.20
2019-03-18T04:20:36.920Z,2.65
2019-03-18T04:23:05.150Z,3.33
2019-03-18T04:25:33.642Z,1.55
2019-03-18T04:28:01.882Z,0.90
2019-03-18T04:30:30.108Z,1.12
2019-03-18T04:32:58.713Z,1.02
2019-03-18T04:35:26.917Z,1.30
2019-03-18T04:37:55.172Z,1.35
2019-03-18T04:40:23.388Z,2.15
2019-03-18T04:42:51.740Z,2.10
2019-03-18T04:45:20.030Z,1.98
2019-03-18T04:47:48.467Z,2.42
2019-03-18T04:50:20.476Z,0.77
2019-03-18T04:52:48.867Z,1.12
2019-03-18T04:55:17.144Z,1.05
2019-03-18T04:57:55.630Z,0.40
2019-03-18T05:00:24.555Z,1.37
2019-03-18T05:02:52.821Z,0.80
2019-03-18T05:05:21.147Z,0.93
2019-03-18T05:07:49.435Z,1.30
2019-03-18T05:10:17.708Z,1.85
2019-03-18T05:12:46.060Z,0.88
2019-03-18T05:15:14.252Z,0.95
2019-03-18T05:17:42.484Z,1.37
2019-03-18T05:20:11.341Z,0.82
2019-03-18T05:22:39.572Z,2.10
2019-03-18T05:25:08.926Z,2.17
2019-03-18T05:27:37.148Z,1.52
2019-03-18T05:30:10.520Z,2.05
2019-03-18T05:32:38.748Z,1.30
2019-03-18T05:35:06.967Z,1.65
2019-03-18T05:37:35.568Z,2.67
2019-03-18T05:40:05.708Z,1.67
2019-03-18T05:42:34.278Z,2.10
2019-03-18T05:45:02.753Z,0.45
2019-03-18T05:47:39.353Z,2.22
2019-03-18T05:50:00.930Z,2.87
2019-03-18T05:52:29.161Z,0.75
2019-03-18T05:54:57.377Z,2.45
2019-03-18T05:57:26.144Z,1.17
2019-03-18T05:59:54.572Z,3.15
2019-03-18T06:02:22.793Z,1.17
2019-03-18T06:04:51.020Z,1.10
2019-03-18T06:07:19.700Z,1.67
2019-03-18T06:09:47.930Z,0.85
2019-03-18T06:12:16.154Z,0.90
2019-03-18T06:14:44.372Z,1.20
2019-03-18T06:17:12.598Z,1.65
2019-03-18T06:19:40.821Z,3.00
2019-03-18T06:22:09.044Z,2.95
2019-03-18T06:24:37.273Z,2.52
2019-03-18T06:27:05.488Z,1.85
2019-03-18T06:29:33.725Z,1.85
2019-03-18T06:32:01.949Z,2.55
2019-03-18T06:34:30.169Z,2.12
2019-03-18T06:36:58.708Z,3.00
2019-03-18T06:39:26.936Z,1.30
2019-03-18T06:41:55.153Z,2.35
2019-03-18T06:44:23.472Z,1.72
2019-03-18T06:46:51.689Z,0.55
2019-03-18T06:49:19.918Z,1.02
2019-03-18T06:51:48.133Z,1.17
2019-03-18T06:54:16.363Z,0.90
2019-03-18T06:56:44.578Z,1.65
2019-03-18T06:59:12.812Z,2.20
2019-03-18T07:01:41.028Z,1.87
2019-03-18T07:04:09.261Z,1.22
2019-03-18T07:06:37.473Z,2.85
2019-03-18T07:09:06.372Z,0.90
2019-03-18T07:11:34.598Z,2.62
2019-03-18T07:14:02.816Z,1.65
2019-03-18T07:16:31.033Z,1.27
2019-03-18T07:18:59.262Z,0.98
2019-03-18T07:21:27.503Z,1.47
2019-03-18T07:23:55.854Z,2.15
2019-03-18T07:26:24.176Z,1.27
2019-03-18T07:28:52.409Z,3.37
2019-03-18T07:31:20.690Z,3.80
2019-03-18T07:33:48.932Z,3.20
2019-03-18T07:36:17.148Z,1.40
2019-03-18T07:38:45.380Z,1.12
2019-03-18T07:41:13.677Z,3.87
2019-03-18T07:43:41.909Z,5.92
2019-03-18T07:46:10.129Z,15.40
2019-03-18T07:48:38.354Z,12.33
2019-03-18T07:51:06.584Z,1.22
2019-03-18T07:53:35.069Z,2.70
2019-03-18T07:56:03.284Z,1.77
2019-03-18T07:58:31.512Z,2.45
2019-03-18T08:00:59.839Z,2.25
2019-03-18T08:03:28.232Z,1.05
2019-03-18T08:05:56.525Z,1.02
2019-03-18T08:08:24.783Z,1.40
2019-03-18T08:10:53.313Z,1.85
2019-03-18T08:13:21.541Z,1.98
2019-03-18T08:15:49.764Z,2.80
2019-03-18T08:18:18.015Z,1.90
2019-03-18T08:20:46.304Z,1.95
2019-03-18T08:23:14.540Z,0.72
2019-03-18T08:25:42.756Z,2.35
2019-03-18T08:28:10.990Z,2.33
2019-03-18T08:30:39.203Z,3.52
2019-03-18T08:33:07.433Z,1.35
2019-03-18T08:35:35.648Z,1.87
2019-03-18T08:38:03.881Z,2.83
2019-03-18T08:40:32.095Z,2.00
2019-03-18T08:43:00.329Z,1.90
2019-03-18T08:45:28.544Z,1.27
2019-03-18T08:47:56.765Z,2.45
2019-03-18T08:50:25.001Z,2.22
2019-03-18T08:52:53.217Z,2.90
2019-03-18T08:55:21.445Z,3.02
2019-03-18T08:57:49.663Z,2.83
2019-03-18T09:00:18.231Z,1.85
2019-03-18T09:02:46.450Z,1.05
2019-03-18T09:05:14.709Z,2.20
2019-03-18T09:07:42.973Z,3.42
2019-03-18T09:10:15.166Z,0.80
2019-03-18T09:12:43.440Z,2.17
2019-03-18T09:15:12.210Z,4.15
2019-03-18T09:17:40.428Z,2.60
2019-03-18T09:20:18.738Z,2.60
2019-03-18T09:22:46.957Z,2.45
2019-03-18T09:25:15.188Z,1.15
2019-03-18T09:27:43.408Z,1.80
2019-03-18T09:30:16.436Z,2.75
2019-03-18T09:32:44.648Z,0.82
2019-03-18T09:35:12.876Z,1.40
2019-03-18T09:37:41.145Z,2.15
2019-03-18T09:40:11.117Z,2.60
2019-03-18T09:42:39.424Z,2.35
2019-03-18T09:45:13.369Z,1.47
2019-03-18T09:47:41.583Z,4.03
2019-03-18T09:50:10.448Z,1.45
2019-03-18T09:52:38.673Z,3.52
2019-03-18T09:55:07.540Z,4.28
2019-03-18T09:57:35.752Z,3.83
2019-03-18T10:00:07.274Z,3.35
2019-03-18T10:02:35.489Z,1.10
2019-03-18T10:05:05.256Z,1.57
2019-03-18T10:07:33.564Z,1.42
2019-03-18T10:10:01.777Z,3.62
2019-03-18T10:12:29.997Z,2.42
2019-03-18T10:14:58.220Z,2.27
2019-03-18T10:17:26.436Z,0.70
2019-03-18T10:19:54.660Z,0.78
2019-03-18T10:22:22.876Z,2.92
2019-03-18T10:24:51.108Z,2.25
2019-03-18T10:27:19.325Z,3.02
2019-03-18T10:29:47.553Z,1.92
2019-03-18T10:32:15.768Z,1.07
2019-03-18T10:34:43.996Z,1.37
2019-03-18T10:37:12.213Z,3.67
2019-03-18T10:39:40.442Z,1.72
2019-03-18T10:42:08.659Z,0.75
2019-03-18T10:44:36.922Z,0.90
2019-03-18T10:47:05.177Z,0.82
2019-03-18T10:49:45.238Z,0.88
2019-03-18T10:52:03.382Z,1.57
2019-03-18T10:54:31.654Z,1.05
2019-03-18T10:57:00.048Z,0.50
2019-03-18T10:59:28.268Z,1.40
2019-03-18T11:01:56.494Z,1.75
2019-03-18T11:04:24.704Z,2.20
2019-03-18T11:06:53.196Z,2.90
2019-03-18T11:09:21.413Z,0.40
2019-03-18T11:11:49.643Z,0.65
2019-03-18T11:14:17.863Z,1.12
2019-03-18T11:16:46.090Z,1.55
2019-03-18T11:19:14.320Z,0.82
2019-03-18T11:21:42.532Z,1.85
2019-03-18T11:24:10.749Z,0.82
2019-03-18T11:26:38.981Z,1.15
2019-03-18T11:29:07.193Z,1.45
2019-03-18T11:31:35.425Z,2.40
2019-03-18T11:34:03.702Z,1.00
2019-03-18T11:36:31.917Z,3.02
2019-03-18T11:39:00.141Z,1.25
2019-03-18T11:41:28.498Z,1.55
2019-03-18T11:43:56.712Z,1.72
2019-03-18T11:46:25.012Z,1.55
2019-03-18T11:48:53.287Z,0.80
2019-03-18T11:51:21.521Z,0.72
2019-03-18T11:53:49.744Z,1.32
2019-03-18T11:56:18.056Z,0.68
2019-03-18T11:58:46.275Z,2.58
2019-03-18T12:01:14.537Z,2.37
2019-03-18T12:03:42.757Z,1.42
2019-03-18T12:06:10.992Z,2.08
2019-03-18T12:08:39.704Z,1.17
2019-03-18T12:11:07.938Z,0.65
2019-03-18T12:13:36.274Z,1.82
2019-03-18T12:16:04.653Z,0.85
2019-03-18T12:18:32.897Z,2.05
2019-03-18T12:21:01.124Z,0.65
2019-03-18T12:23:29.340Z,0.70
2019-03-18T12:25:57.579Z,1.90
2019-03-18T12:28:25.792Z,0.57
2019-03-18T12:30:54.288Z,1.70
2019-03-18T12:33:22.508Z,0.98
2019-03-18T12:35:50.736Z,4.87
2019-03-18T12:38:19.237Z,0.70
2019-03-18T12:40:47.473Z,1.32
2019-03-18T12:43:15.735Z,0.80
2019-03-18T12:45:43.945Z,0.45
2019-03-18T12:48:12.188Z,1.82
2019-03-18T12:50:55.110Z,2.52
2019-03-18T12:53:10.340Z,0.47
2019-03-18T12:55:38.562Z,4.65
2019-03-18T12:58:06.787Z,3.75
2019-03-18T13:00:35.660Z,1.55
2019-03-18T13:03:03.901Z,0.88
2019-03-18T13:05:32.117Z,1.50
2019-03-18T13:08:03.522Z,1.15
2019-03-18T13:10:31.864Z,2.02
2019-03-18T13:13:00.093Z,1.47
2019-03-18T13:15:28.360Z,1.90
2019-03-18T13:17:56.589Z,4.45
2019-03-18T13:20:25.142Z,1.32
2019-03-18T13:22:54.682Z,3.08
2019-03-18T13:25:22.945Z,1.62
2019-03-18T13:27:51.168Z,0.85
2019-03-18T13:30:23.160Z,1.75
2019-03-18T13:32:51.406Z,1.02
2019-03-18T13:35:19.618Z,2.55
2019-03-18T13:37:47.902Z,1.12
2019-03-18T13:40:19.557Z,1.52
2019-03-18T13:42:47.857Z,2.15
2019-03-18T13:45:23.584Z,1.30
2019-03-18T13:47:51.807Z,3.20
2019-03-18T13:50:20.873Z,1.87
2019-03-18T13:52:49.105Z,1.12
2019-03-18T13:55:17.320Z,0.93
2019-03-18T13:57:45.557Z,0.90
2019-03-18T14:00:18.863Z,1.17
2019-03-18T14:02:47.197Z,3.47
2019-03-18T14:05:15.543Z,1.20
2019-03-18T14:07:43.857Z,4.08
2019-03-18T14:10:19.260Z,1.45
2019-03-18T14:12:47.498Z,0.42
2019-03-18T14:15:16.855Z,1.70
2019-03-18T14:17:45.400Z,4.15
2019-03-18T14:20:16.329Z,3.00
2019-03-18T14:22:44.544Z,1.02
2019-03-18T14:25:12.766Z,0.68
2019-03-18T14:27:41.068Z,1.42
2019-03-18T14:30:19.149Z,1.55
2019-03-18T14:32:47.383Z,0.78
2019-03-18T14:35:15.601Z,1.00
2019-03-18T14:37:43.839Z,1.65
2019-03-18T14:40:14.644Z,2.50
2019-03-18T14:42:42.872Z,3.12
2019-03-18T14:45:16.625Z,1.37
2019-03-18T14:47:44.864Z,2.35
2019-03-18T14:50:14.504Z,1.37
2019-03-18T14:52:42.808Z,1.85
2019-03-18T14:55:15.589Z,1.87
2019-03-18T14:57:43.820Z,2.25
2019-03-18T15:00:22.509Z,1.02
2019-03-18T15:02:50.740Z,2.17
2019-03-18T15:05:18.961Z,2.55
2019-03-18T15:07:47.215Z,0.90
2019-03-18T15:10:20.618Z,0.75
2019-03-18T15:12:48.892Z,2.22
2019-03-18T15:15:18.231Z,1.92
2019-03-18T15:17:46.460Z,1.22
2019-03-18T15:20:16.876Z,1.20
2019-03-18T15:22:45.105Z,0.40
2019-03-18T15:25:27.956Z,0.30
2019-03-18T15:28:15.676Z,0.40
2019-03-18T15:30:44.165Z,0.40
2019-03-18T15:33:12.393Z,1.12
2019-03-18T15:35:40.610Z,1.62
2019-03-18T15:38:08.839Z,0.33
2019-03-18T15:40:37.057Z,0.60
2019-03-18T15:43:05.286Z,0.95
2019-03-18T15:45:33.501Z,0.53
2019-03-18T15:48:01.764Z,0.30
2019-03-18T15:50:30.279Z,0.68
2019-03-18T15:52:58.752Z,0.90
2019-03-18T15:55:26.970Z,0.82
2019-03-18T15:57:55.184Z,0.50
2019-03-18T16:00:31.288Z,0.72
2019-03-18T16:03:00.061Z,0.80
2019-03-18T16:05:28.279Z,1.22
2019-03-18T16:07:56.492Z,2.75
2019-03-18T16:10:24.728Z,1.15
2019-03-18T16:12:52.952Z,1.10
2019-03-18T16:15:21.203Z,0.90
2019-03-18T16:17:49.468Z,4.05
2019-03-18T16:20:19.319Z,0.60
2019-03-18T16:22:47.545Z,2.20
2019-03-18T16:25:15.842Z,1.75
2019-03-18T16:27:44.156Z,4.03
2019-03-18T16:30:14.984Z,2.80
2019-03-18T16:32:43.211Z,1.55
2019-03-18T16:35:16.474Z,1.57
2019-03-18T16:37:44.905Z,1.50
2019-03-18T16:40:14.577Z,1.22
2019-03-18T16:42:43.057Z,1.00
2019-03-18T16:45:15.525Z,1.87
2019-03-18T16:47:43.745Z,1.75
2019-03-18T16:50:17.004Z,3.17
2019-03-18T16:52:45.301Z,1.40
2019-03-18T16:55:13.535Z,1.17
2019-03-18T16:57:41.753Z,2.42
2019-03-18T17:00:13.284Z,5.12
2019-03-18T17:02:41.500Z,2.50
2019-03-18T17:05:09.724Z,3.05
2019-03-18T17:07:37.996Z,2.20
2019-03-18T17:10:09.557Z,3.35
2019-03-18T17:12:37.773Z,4.70
2019-03-18T17:15:08.851Z,3.55
2019-03-18T17:20:07.537Z,1.85
2019-03-18T17:22:47.734Z,1.75
2019-03-18T17:25:08.904Z,1.27
2019-03-18T17:27:37.121Z,1.62
2019-03-18T17:30:11.552Z,1.70
2019-03-18T17:32:59.256Z,1.52
2019-03-18T17:35:27.508Z,2.83
2019-03-18T17:37:55.728Z,2.45
2019-03-18T17:40:23.965Z,2.05
2019-03-18T17:42:52.176Z,1.67
2019-03-18T17:45:20.403Z,3.20
2019-03-18T17:47:48.623Z,4.37
2019-03-18T17:50:23.241Z,2.75
2019-03-18T17:53:01.526Z,1.72
2019-03-18T17:55:21.459Z,1.55
2019-03-18T17:57:49.709Z,1.72
2019-03-18T18:00:36.153Z,2.90
2019-03-18T18:03:04.377Z,3.45
2019-03-18T18:05:32.612Z,3.60
2019-03-18T18:08:00.830Z,3.08
2019-03-18T18:10:29.056Z,3.87
2019-03-18T18:12:57.327Z,3.75
2019-03-18T18:15:25.577Z,3.75
2019-03-18T18:17:53.829Z,3.90
2019-03-18T18:20:22.056Z,3.47
2019-03-18T18:22:50.271Z,2.58
2019-03-18T18:25:18.505Z,3.40
2019-03-18T18:27:46.733Z,3.33
2019-03-18T18:30:17.148Z,3.95
2019-03-18T18:32:45.370Z,2.90
2019-03-18T18:35:13.598Z,3.20
2019-03-18T18:37:41.816Z,2.85
2019-03-18T18:40:15.400Z,2.67
2019-03-18T18:42:43.670Z,2.52
2019-03-18T18:45:12.535Z,2.10
2019-03-18T18:47:40.753Z,2.75
2019-03-18T18:50:10.220Z,2.52
2019-03-18T18:52:38.441Z,3.08
2019-03-18T18:55:11.432Z,5.20
2019-03-18T18:57:39.673Z,4.75
2019-03-18T19:00:22.424Z,2.98
2019-03-18T19:02:50.644Z,4.45
2019-03-18T19:05:20.139Z,2.20
2019-03-18T19:07:48.354Z,3.10
2019-03-18T19:10:17.507Z,2.55
2019-03-18T19:12:45.741Z,7.85
2019-03-18T19:15:24.325Z,3.10
2019-03-18T19:17:52.544Z,2.67
2019-03-18T19:20:20.786Z,2.50
2019-03-18T19:22:49.092Z,3.30
2019-03-18T19:25:17.791Z,3.52
2019-03-18T19:27:46.313Z,1.82
2019-03-18T19:30:19.630Z,2.52
2019-03-18T19:32:47.859Z,2.52
2019-03-18T19:35:16.076Z,4.80
2019-03-18T19:37:44.691Z,2.33
2019-03-18T19:40:15.536Z,5.67
2019-03-18T19:42:43.789Z,5.33
2019-03-18T19:45:13.241Z,4.58
2019-03-18T19:47:41.477Z,3.60
2019-03-18T19:50:14.880Z,3.47
2019-03-18T19:52:43.116Z,3.30
2019-03-18T19:55:11.337Z,3.30
2019-03-18T19:57:39.568Z,5.17
2019-03-18T20:00:13.146Z,3.75
2019-03-18T20:02:41.464Z,2.58
2019-03-18T20:05:14.892Z,2.70
2019-03-18T20:07:39.696Z,3.15
2019-03-18T20:10:13.229Z,5.42
2019-03-18T20:12:41.457Z,3.67
2019-03-18T20:15:12.220Z,3.27
2019-03-18T20:17:40.445Z,3.47
2019-03-18T20:20:11.326Z,5.33
2019-03-18T20:22:39.532Z,3.95
2019-03-18T20:25:09.688Z,5.20
2019-03-18T20:27:38.268Z,5.07
2019-03-18T20:30:14.832Z,3.85
2019-03-18T20:32:43.041Z,4.35
2019-03-18T20:35:13.451Z,4.15
2019-03-18T20:37:41.672Z,5.05
2019-03-18T20:40:12.687Z,3.67
2019-03-18T20:45:16.207Z,7.30
2019-03-18T20:47:44.488Z,4.85
2019-03-18T20:50:14.530Z,5.70
2019-03-18T20:52:42.758Z,6.37
2019-03-18T20:55:11.144Z,4.97
2019-03-18T20:57:39.405Z,8.55
2019-03-18T21:00:21.072Z,5.60
2019-03-18T21:02:49.306Z,4.33
2019-03-18T21:05:17.595Z,6.17
2019-03-18T21:07:45.805Z,4.03
2019-03-18T21:10:16.510Z,4.95
2019-03-18T21:12:44.743Z,6.42
2019-03-18T21:15:15.107Z,3.70
2019-03-18T21:17:43.330Z,3.98
2019-03-18T21:20:19.064Z,5.28
2019-03-18T21:22:47.264Z,4.15
2019-03-18T21:25:15.494Z,8.28
2019-03-18T21:27:43.728Z,4.70
2019-03-18T21:30:20.104Z,3.77
2019-03-18T21:32:48.381Z,3.45
2019-03-18T21:35:16.723Z,3.37
2019-03-18T21:37:44.964Z,5.45
2019-03-18T21:40:22.772Z,5.42
2019-03-18T21:42:51.008Z,5.42
2019-03-18T21:45:20.087Z,2.90
2019-03-18T21:47:48.404Z,3.72
2019-03-18T21:50:17.001Z,4.05
2019-03-18T21:52:45.220Z,3.00
2019-03-18T21:55:13.906Z,2.75
2019-03-18T21:57:42.136Z,5.17
2019-03-18T22:00:13.657Z,3.92
2019-03-18T22:02:41.893Z,3.75
2019-03-18T22:05:10.112Z,4.58
2019-03-18T22:07:38.344Z,3.30
2019-03-18T22:10:11.969Z,3.10
2019-03-18T22:12:40.196Z,4.97
2019-03-18T22:15:10.553Z,4.15
2019-03-18T22:17:38.784Z,4.35
2019-03-18T22:20:10.136Z,4.55
2019-03-18T22:22:38.367Z,3.98
2019-03-18T22:25:08.323Z,4.53
2019-03-18T22:27:36.537Z,5.55
2019-03-18T22:30:07.309Z,3.83
2019-03-18T22:32:35.524Z,4.28
2019-03-18T22:35:05.592Z,3.98
2019-03-18T22:37:33.809Z,3.13
2019-03-18T22:40:02.041Z,3.20
2019-03-18T22:42:30.253Z,5.42
2019-03-18T22:44:58.480Z,3.52
2019-03-18T22:47:26.752Z,3.70
2019-03-18T22:49:54.972Z,7.12
2019-03-18T22:52:23.231Z,5.17
2019-03-18T22:54:55.909Z,4.58
2019-03-18T22:57:21.424Z,4.45
2019-03-18T22:59:50.580Z,4.47
2019-03-18T23:02:19.120Z,3.40
2019-03-18T23:04:47.343Z,3.75
2019-03-18T23:07:15.881Z,3.45
2019-03-18T23:09:44.109Z,2.98
2019-03-18T23:12:12.324Z,5.20
2019-03-18T23:14:40.553Z,6.70
2019-03-18T23:17:08.772Z,3.50
2019-03-18T23:19:37.094Z,4.85
2019-03-18T23:22:05.312Z,4.15
2019-03-18T23:24:33.537Z,6.12
2019-03-18T23:27:01.753Z,4.25
2019-03-18T23:29:29.990Z,10.95
2019-03-18T23:31:58.220Z,5.25
2019-03-18T23:34:26.448Z,4.58
2019-03-18T23:36:54.664Z,3.77
2019-03-18T23:39:22.893Z,4.00
2019-03-18T23:41:51.108Z,5.05
2019-03-18T23:44:19.345Z,6.72
2019-03-18T23:46:47.557Z,4.03
2019-03-18T23:49:16.066Z,5.72
2019-03-18T23:51:44.282Z,4.85
2019-03-18T23:54:12.511Z,5.35
2019-03-18T23:56:40.729Z,5.25
2019-03-18T23:59:08.956Z,6.03
